Marianne — VRFM5 — position and weather

sailwx.info

Track history (hours):
 
Tides and Currents Weather Stations Pressure Air Temp Water Temp Dewpoint Dewpoint Depression Visibility Wind Speed Wind Dir Waves Ship Positions

Marianne

Last reported at 2015-May-27 23:33 UTC. Time now 2015-May-27 23:58 UTC.
Position N 54°55' W 000°13'.

Length 97 m; draft 5.5 m.

Type: Ship (hazmat cat B). MMSI: 477560836.

Date/timePositionNaut miles runAvg speedWind from/ knotsBaromVisibWave heightAir tempDewpointWater temp
2015-May-27 23:33N 54°55' W 000°13'1313.5
2015-May-27 22:33N 54°50' W 000°35'1413.6
2015-May-27 21:32N 54°45' W 000°57'10 1.7
2015-May-27 15:27N 54°37' W 001°10'0 0.0
2015-May-27 14:30N 54°37' W 001°10'0 0.0
2015-May-27 13:28N 54°37' W 001°10'0 0.0
2015-May-27 12:28N 54°37' W 001°10'0 0.0
2015-May-27 11:33N 54°37' W 001°10'0 0.0
2015-May-27 10:33N 54°37' W 001°10'0 0.0
2015-May-27 09:33N 54°37' W 001°10'0 0.0
2015-May-27 08:34N 54°37' W 001°10'0 0.0
2015-May-27 07:25N 54°37' W 001°10'0 0.0
2015-May-27 06:33N 54°37' W 001°10'0 0.0
2015-May-27 05:24N 54°37' W 001°10'0 0.0
2015-May-26 16:24N 54°37' W 001°10'0 0.0
2015-May-26 15:24N 54°37' W 001°10'0 0.0
2015-May-26 14:22N 54°37' W 001°10'0 0.0
2015-May-26 13:24N 54°37' W 001°10'0 0.0
2015-May-26 12:27N 54°37' W 001°10'0 0.0
2015-May-26 11:28N 54°37' W 001°10'0 0.0
2015-May-26 10:30N 54°37' W 001°10'0 0.0
2015-May-26 09:31N 54°37' W 001°10'0 0.0
2015-May-26 08:04N 54°37' W 001°10'0 0.0
2015-May-26 07:30N 54°37' W 001°10'0 0.0
2015-May-26 06:33N 54°37' W 001°10'0 0.0
2015-May-26 05:33N 54°37' W 001°10'0 0.0
2015-May-25 16:33N 54°37' W 001°10'0 0.0
2015-May-25 15:33N 54°37' W 001°10'0 0.0
2015-May-25 14:33N 54°37' W 001°10'0 0.0
2015-May-25 13:33N 54°37' W 001°10'0 0.0
2015-May-25 12:33N 54°37' W 001°10'0 0.0
2015-May-25 10:09N 54°37' W 001°10'0 0.0
2015-May-25 09:21N 54°37' W 001°10'0 0.0
2015-May-25 08:27N 54°37' W 001°10'0 0.0
2015-May-25 07:27N 54°37' W 001°10'0 0.0
2015-May-25 06:27N 54°37' W 001°10'6 6.9
2015-May-25 05:32N 54°42' W 001°02'6 0.5
2015-May-24 18:12N 54°38' W 001°09'6 8.6
2015-May-24 17:33N 54°42' W 001°02'0 0.2
2015-May-24 16:32N 54°42' W 001°02'0 0.0
2015-May-24 15:32N 54°42' W 001°02'0 0.0
2015-May-24 14:29N 54°42' W 001°02'0 0.1
2015-May-24 13:33N 54°42' W 001°02'1111.0
2015-May-24 12:32N 54°48' W 000°46'1212.3
2015-May-24 11:34N 54°57' W 000°31'7 7.3
2015-May-24 10:33N 55°03' W 000°24'1211.7
2015-May-24 09:30N 54°53' W 000°37'1312.6
2015-May-24 08:30N 54°43' W 000°49'6 6.4
2015-May-24 07:31N 54°41' W 000°60'0 0.0
2015-May-24 06:28N 54°41' W 000°60'0 0.0
2015-May-24 05:31N 54°41' W 000°60'0 0.0
2015-May-24 04:32N 54°41' W 000°60'0 0.0
2015-May-24 03:29N 54°41' W 000°60'0 0.0
2015-May-24 02:31N 54°41' W 001°00'0 0.0
2015-May-24 01:28N 54°41' W 000°60'0 0.0
2015-May-24 00:28N 54°41' W 000°60'0 0.0
2015-May-23 23:31N 54°41' W 000°60'0 0.1
2015-May-23 22:32N 54°41' W 000°60'0 0.0
2015-May-23 21:31N 54°41' W 000°60'0 0.0
2015-May-23 20:31N 54°41' W 000°60'0 0.0
2015-May-23 19:31N 54°41' W 000°60'0 0.0
2015-May-23 18:31N 54°41' W 000°60'0 0.1
2015-May-23 17:31N 54°41' W 001°00'0 0.0
2015-May-23 16:31N 54°41' W 001°00'0 0.0
2015-May-23 15:32N 54°41' W 001°00'0 0.0
2015-May-23 13:31N 54°41' W 001°00'0 0.0
2015-May-23 12:19N 54°41' W 001°00'0 0.0
2015-May-23 11:22N 54°41' W 001°00'0 0.0
2015-May-23 10:22N 54°41' W 001°00'0 0.0
2015-May-23 09:25N 54°41' W 001°00'0 0.1
2015-May-23 08:25N 54°41' W 000°60'0 0.0
2015-May-23 07:28N 54°41' W 000°60'0 0.0
2015-May-23 06:28N 54°41' W 000°60'0 0.0
2015-May-23 05:28N 54°41' W 000°60'0 0.0
2015-May-23 04:31N 54°41' W 000°60'0 0.0
2015-May-23 03:31N 54°41' W 001°00'0 0.0
2015-May-23 02:31N 54°41' W 001°00'0 0.0
2015-May-23 01:33N 54°41' W 001°00'0 0.0
2015-May-23 00:31N 54°41' W 001°00'0 0.0
2015-May-22 23:31N 54°41' W 001°00'0 0.0
2015-May-22 22:31N 54°41' W 001°00'0 0.0
2015-May-22 21:33N 54°41' W 001°00'0 0.1
2015-May-22 20:31N 54°41' W 000°60'0 0.0
2015-May-22 19:33N 54°41' W 000°60'0 0.0
2015-May-22 18:31N 54°41' W 000°60'0 0.0
2015-May-22 17:33N 54°41' W 000°60'0 0.0
2015-May-22 16:15N 54°41' W 000°60'0 0.0
2015-May-22 15:34N 54°41' W 000°60'0 0.1
2015-May-22 14:21N 54°41' W 000°60'0 0.0
2015-May-22 13:09N 54°41' W 000°60'0 0.0
2015-May-22 12:24N 54°41' W 000°60'0 0.0
2015-May-22 11:12N 54°41' W 000°60'0 0.0
2015-May-22 10:27N 54°41' W 000°60'0 0.2
2015-May-22 09:33N 54°41' W 001°00'7 6.4
2015-May-22 08:28N 54°37' W 001°09'0 0.0
2015-May-22 07:28N 54°37' W 001°09'0 0.0
2015-May-22 06:16N 54°37' W 001°09'0 0.0
2015-May-22 05:31N 54°37' W 001°09'0 0.0
2015-May-21 15:20N 54°37' W 001°09'0 0.0
2015-May-21 14:19N 54°37' W 001°09'0 0.0
2015-May-21 13:19N 54°37' W 001°09'0 0.0
2015-May-21 12:18N 54°37' W 001°09'4 4.8
2015-May-21 11:33N 54°40' W 001°07'1110.6
2015-May-21 10:34N 54°50' W 000°59'1313.3
2015-May-21 09:33N 55°01' W 000°48'  
2015-May-18 02:09N 60°51' E 004°40'  
Track history (hours):
 
Tides and Currents Weather Stations Pressure Air Temp Water Temp Dewpoint Dewpoint Depression Visibility Wind Speed Wind Dir Waves Ship Positions

Marianne

Last reported at 2015-May-27 23:33 UTC. Time now 2015-May-27 23:58 UTC.
Position N 54°55' W 000°13'.

Length 97 m; draft 5.5 m.

Type: Ship (hazmat cat B). MMSI: 477560836.

Date/timePositionNaut miles runAvg speedWind from/ knotsBaromVisibWave heightAir tempDewpointWater temp
2015-May-27 23:33N 54°55' W 000°13'1313.5
2015-May-27 22:33N 54°50' W 000°35'1413.6
2015-May-27 21:32N 54°45' W 000°57'10 1.7
2015-May-27 15:27N 54°37' W 001°10'0 0.0
2015-May-27 14:30N 54°37' W 001°10'0 0.0
2015-May-27 13:28N 54°37' W 001°10'0 0.0
2015-May-27 12:28N 54°37' W 001°10'0 0.0
2015-May-27 11:33N 54°37' W 001°10'0 0.0
2015-May-27 10:33N 54°37' W 001°10'0 0.0
2015-May-27 09:33N 54°37' W 001°10'0 0.0
2015-May-27 08:34N 54°37' W 001°10'0 0.0
2015-May-27 07:25N 54°37' W 001°10'0 0.0
2015-May-27 06:33N 54°37' W 001°10'0 0.0
2015-May-27 05:24N 54°37' W 001°10'0 0.0
2015-May-26 16:24N 54°37' W 001°10'0 0.0
2015-May-26 15:24N 54°37' W 001°10'0 0.0
2015-May-26 14:22N 54°37' W 001°10'0 0.0
2015-May-26 13:24N 54°37' W 001°10'0 0.0
2015-May-26 12:27N 54°37' W 001°10'0 0.0
2015-May-26 11:28N 54°37' W 001°10'0 0.0
2015-May-26 10:30N 54°37' W 001°10'0 0.0
2015-May-26 09:31N 54°37' W 001°10'0 0.0
2015-May-26 08:04N 54°37' W 001°10'0 0.0
2015-May-26 07:30N 54°37' W 001°10'0 0.0
2015-May-26 06:33N 54°37' W 001°10'0 0.0
2015-May-26 05:33N 54°37' W 001°10'0 0.0
2015-May-25 16:33N 54°37' W 001°10'0 0.0
2015-May-25 15:33N 54°37' W 001°10'0 0.0
2015-May-25 14:33N 54°37' W 001°10'0 0.0
2015-May-25 13:33N 54°37' W 001°10'0 0.0
2015-May-25 12:33N 54°37' W 001°10'0 0.0
2015-May-25 10:09N 54°37' W 001°10'0 0.0
2015-May-25 09:21N 54°37' W 001°10'0 0.0
2015-May-25 08:27N 54°37' W 001°10'0 0.0
2015-May-25 07:27N 54°37' W 001°10'0 0.0
2015-May-25 06:27N 54°37' W 001°10'6 6.9
2015-May-25 05:32N 54°42' W 001°02'6 0.5
2015-May-24 18:12N 54°38' W 001°09'6 8.6
2015-May-24 17:33N 54°42' W 001°02'0 0.2
2015-May-24 16:32N 54°42' W 001°02'0 0.0
2015-May-24 15:32N 54°42' W 001°02'0 0.0
2015-May-24 14:29N 54°42' W 001°02'0 0.1
2015-May-24 13:33N 54°42' W 001°02'1111.0
2015-May-24 12:32N 54°48' W 000°46'1212.3
2015-May-24 11:34N 54°57' W 000°31'7 7.3
2015-May-24 10:33N 55°03' W 000°24'1211.7
2015-May-24 09:30N 54°53' W 000°37'1312.6
2015-May-24 08:30N 54°43' W 000°49'6 6.4
2015-May-24 07:31N 54°41' W 000°60'0 0.0
2015-May-24 06:28N 54°41' W 000°60'0 0.0
2015-May-24 05:31N 54°41' W 000°60'0 0.0
2015-May-24 04:32N 54°41' W 000°60'0 0.0
2015-May-24 03:29N 54°41' W 000°60'0 0.0
2015-May-24 02:31N 54°41' W 001°00'0 0.0
2015-May-24 01:28N 54°41' W 000°60'0 0.0
2015-May-24 00:28N 54°41' W 000°60'0 0.0
2015-May-23 23:31N 54°41' W 000°60'0 0.1
2015-May-23 22:32N 54°41' W 000°60'0 0.0
2015-May-23 21:31N 54°41' W 000°60'0 0.0
2015-May-23 20:31N 54°41' W 000°60'0 0.0
2015-May-23 19:31N 54°41' W 000°60'0 0.0
2015-May-23 18:31N 54°41' W 000°60'0 0.1
2015-May-23 17:31N 54°41' W 001°00'0 0.0
2015-May-23 16:31N 54°41' W 001°00'0 0.0
2015-May-23 15:32N 54°41' W 001°00'0 0.0
2015-May-23 13:31N 54°41' W 001°00'0 0.0
2015-May-23 12:19N 54°41' W 001°00'0 0.0
2015-May-23 11:22N 54°41' W 001°00'0 0.0
2015-May-23 10:22N 54°41' W 001°00'0 0.0
2015-May-23 09:25N 54°41' W 001°00'0 0.1
2015-May-23 08:25N 54°41' W 000°60'0 0.0
2015-May-23 07:28N 54°41' W 000°60'0 0.0
2015-May-23 06:28N 54°41' W 000°60'0 0.0
2015-May-23 05:28N 54°41' W 000°60'0 0.0
2015-May-23 04:31N 54°41' W 000°60'0 0.0
2015-May-23 03:31N 54°41' W 001°00'0 0.0
2015-May-23 02:31N 54°41' W 001°00'0 0.0
2015-May-23 01:33N 54°41' W 001°00'0 0.0
2015-May-23 00:31N 54°41' W 001°00'0 0.0
2015-May-22 23:31N 54°41' W 001°00'0 0.0
2015-May-22 22:31N 54°41' W 001°00'0 0.0
2015-May-22 21:33N 54°41' W 001°00'0 0.1
2015-May-22 20:31N 54°41' W 000°60'0 0.0
2015-May-22 19:33N 54°41' W 000°60'0 0.0
2015-May-22 18:31N 54°41' W 000°60'0 0.0
2015-May-22 17:33N 54°41' W 000°60'0 0.0
2015-May-22 16:15N 54°41' W 000°60'0 0.0
2015-May-22 15:34N 54°41' W 000°60'0 0.1
2015-May-22 14:21N 54°41' W 000°60'0 0.0
2015-May-22 13:09N 54°41' W 000°60'0 0.0
2015-May-22 12:24N 54°41' W 000°60'0 0.0
2015-May-22 11:12N 54°41' W 000°60'0 0.0
2015-May-22 10:27N 54°41' W 000°60'0 0.2
2015-May-22 09:33N 54°41' W 001°00'7 6.4
2015-May-22 08:28N 54°37' W 001°09'0 0.0
2015-May-22 07:28N 54°37' W 001°09'0 0.0
2015-May-22 06:16N 54°37' W 001°09'0 0.0
2015-May-22 05:31N 54°37' W 001°09'0 0.0
2015-May-21 15:20N 54°37' W 001°09'0 0.0
2015-May-21 14:19N 54°37' W 001°09'0 0.0
2015-May-21 13:19N 54°37' W 001°09'0 0.0
2015-May-21 12:18N 54°37' W 001°09'4 4.8
2015-May-21 11:33N 54°40' W 001°07'1110.6
2015-May-21 10:34N 54°50' W 000°59'1313.3
2015-May-21 09:33N 55°01' W 000°48'  
2015-May-18 02:09N 60°51' E 004°40'  

Dump ship's entire track history